Time;durP1;ratioP1;P1;durP2;ratioP2;P2;SDS_P1;SDS_P2;PMS_P1;PMS_P2;Temp;Humidity;BMP_temperature;BMP_pressure;BME280_temperature;BME280_humidity;BME280_pressure;Samples;Min_cycle;Max_cycle;Signal;HPM_P1;HPM_P2
2023/11/14 00:00:30;;;;;;;;;;;7.40;99.90;;;;;;5052892;28;19908;-75
2023/11/14 00:02:56;;;;;;;;;;;7.50;99.90;;;;;;5071234;28;19912;-75
2023/11/14 00:05:22;;;;;;;;;;;7.50;99.90;;;;;;5069599;28;20284;-75
2023/11/14 00:07:47;;;;;;;;;;;7.40;99.90;;;;;;5071019;28;19955;-75
2023/11/14 00:10:13;;;;;;;;;;;7.40;99.90;;;;;;5071587;28;20403;-74
2023/11/14 00:12:38;;;;;;;;;;;7.40;99.90;;;;;;5071570;28;19948;-75
2023/11/14 00:15:04;;;;;;;;;;;7.40;99.90;;;;;;5053080;28;19912;-74
2023/11/14 00:17:30;;;;;;;;;;;7.40;99.90;;;;;;5070366;28;19904;-74
2023/11/14 00:19:55;;;;;;;;;;;7.50;99.90;;;;;;5070214;28;19911;-74
2023/11/14 00:22:21;;;;;;;;;;;7.40;99.90;;;;;;5070313;28;19912;-75
2023/11/14 00:24:47;;;;;;;;;;;7.50;99.90;;;;;;5052223;28;19958;-74
2023/11/14 00:27:14;;;;;;;;;;;7.40;99.90;;;;;;5070282;28;19909;-75
2023/11/14 00:29:41;;;;;;;;;;;7.40;99.90;;;;;;5052081;28;19926;-74
2023/11/14 00:32:06;;;;;;;;;;;7.50;99.90;;;;;;5070278;28;20316;-75
2023/11/14 00:34:32;;;;;;;;;;;7.50;99.90;;;;;;5069048;28;19911;-74
2023/11/14 00:36:57;;;;;;;;;;;7.50;99.90;;;;;;5070129;28;20391;-74
2023/11/14 00:39:23;;;;;;;;;;;7.50;99.90;;;;;;5052136;28;19958;-74
2023/11/14 00:41:53;;;;;;;;;;;7.40;99.90;;;;;;5070290;28;19908;-75
2023/11/14 00:44:22;;;;;;;;;;;7.50;99.90;;;;;;5052056;28;19905;-75
2023/11/14 00:46:48;;;;;;;;;;;7.50;99.90;;;;;;5069520;28;19912;-75
2023/11/14 00:49:14;;;;;;;;;;;7.60;99.90;;;;;;5051994;28;19915;-75
2023/11/14 00:51:39;;;;;;;;;;;7.50;99.90;;;;;;5069840;28;19915;-74
2023/11/14 00:54:05;;;;;;;;;;;7.50;99.90;;;;;;5052046;28;19904;-75
2023/11/14 00:56:30;;;;;;;;;;;7.50;99.90;;;;;;5069922;28;19905;-74
2023/11/14 00:58:56;;;;;;;;;;;7.40;99.90;;;;;;5070186;28;19912;-74
2023/11/14 01:01:21;;;;;;;;;;;7.50;99.90;;;;;;5051888;28;19905;-74
2023/11/14 01:03:47;;;;;;;;;;;7.50;99.90;;;;;;5069904;28;19934;-74
2023/11/14 01:06:12;;;;;;;;;;;7.40;99.90;;;;;;5069951;28;19908;-74
2023/11/14 01:08:38;;;;;;;;;;;7.40;99.90;;;;;;5070388;28;19908;-74
2023/11/14 01:11:03;;;;;;;;;;;7.50;99.90;;;;;;5055864;28;19920;-75
2023/11/14 01:13:29;;;;;;;;;;;7.50;99.90;;;;;;5073943;28;19912;-74
2023/11/14 01:15:54;;;;;;;;;;;7.50;99.90;;;;;;5073593;28;19911;-75
2023/11/14 01:18:20;;;;;;;;;;;7.50;99.90;;;;;;5073608;28;19904;-75
2023/11/14 01:20:45;;;;;;;;;;;7.50;99.90;;;;;;5073521;28;19911;-74
2023/11/14 01:23:11;;;;;;;;;;;7.60;99.90;;;;;;5073016;28;19999;-74
2023/11/14 01:25:39;;;;;;;;;;;7.60;99.90;;;;;;5073739;28;19904;-74
2023/11/14 01:28:04;;;;;;;;;;;7.60;99.90;;;;;;5055511;28;20460;-74
2023/11/14 01:30:30;;;;;;;;;;;7.70;99.90;;;;;;5073343;28;20002;-74
2023/11/14 01:32:56;;;;;;;;;;;7.70;99.90;;;;;;5055328;28;19935;-75
2023/11/14 01:35:22;;;;;;;;;;;7.70;99.90;;;;;;5055528;28;19930;-75
2023/11/14 01:37:48;;;;;;;;;;;7.60;99.90;;;;;;5074069;28;19908;-75
2023/11/14 01:40:14;;;;;;;;;;;7.60;99.90;;;;;;5073745;28;19912;-75
2023/11/14 01:42:40;;;;;;;;;;;7.60;99.90;;;;;;5055766;28;20430;-75
2023/11/14 01:45:06;;;;;;;;;;;7.60;99.90;;;;;;5056018;28;19909;-74
2023/11/14 01:47:31;;;;;;;;;;;7.70;99.90;;;;;;5072968;28;19923;-74
2023/11/14 01:49:57;;;;;;;;;;;7.70;99.90;;;;;;5072957;28;19912;-74
2023/11/14 01:52:23;;;;;;;;;;;7.70;99.90;;;;;;5073326;28;19931;-74
2023/11/14 01:54:49;;;;;;;;;;;7.70;99.90;;;;;;5055218;28;19911;-74
2023/11/14 01:57:15;;;;;;;;;;;7.60;99.90;;;;;;5055159;28;19909;-74
2023/11/14 01:59:42;;;;;;;;;;;7.60;99.90;;;;;;5073221;28;19904;-74
2023/11/14 02:02:07;;;;;;;;;;;7.70;99.90;;;;;;5072997;28;19908;-74
2023/11/14 02:04:34;;;;;;;;;;;7.60;99.90;;;;;;5054789;28;19961;-75
2023/11/14 02:07:00;;;;;;;;;;;7.60;99.90;;;;;;5072670;28;20395;-74
2023/11/14 02:09:27;;;;;;;;;;;7.60;99.90;;;;;;5054824;28;20443;-74
2023/11/14 02:11:53;;;;;;;;;;;7.70;99.90;;;;;;5054924;28;19908;-74
2023/11/14 02:14:18;;;;;;;;;;;7.70;99.90;;;;;;5072398;28;20039;-74
2023/11/14 02:16:48;;;;;;;;;;;7.70;99.90;;;;;;5072632;28;20008;-74
2023/11/14 02:19:13;;;;;;;;;;;7.70;99.90;;;;;;5074237;28;20050;-75
2023/11/14 02:21:39;;;;;;;;;;;7.70;99.90;;;;;;5073691;28;20422;-74
2023/11/14 02:24:08;;;;;;;;;;;7.80;99.90;;;;;;5054529;28;19908;-74
2023/11/14 02:26:33;;;;;;;;;;;7.70;99.90;;;;;;5072219;28;19916;-75
2023/11/14 02:28:59;;;;;;;;;;;7.70;99.90;;;;;;5072858;28;19909;-74
2023/11/14 02:31:25;;;;;;;;;;;7.70;99.90;;;;;;5054284;28;20006;-74
2023/11/14 02:33:51;;;;;;;;;;;7.70;99.90;;;;;;5072210;28;20387;-74
2023/11/14 02:36:17;;;;;;;;;;;7.70;99.90;;;;;;5072139;28;19982;-74
2023/11/14 02:38:42;;;;;;;;;;;7.80;99.90;;;;;;5072071;28;19912;-74
2023/11/14 02:41:08;;;;;;;;;;;7.80;99.90;;;;;;5072129;28;19912;-74
2023/11/14 02:43:33;;;;;;;;;;;7.80;99.90;;;;;;5053808;28;20324;-74
2023/11/14 02:45:58;;;;;;;;;;;7.80;99.90;;;;;;5053836;28;20296;-74
2023/11/14 02:48:24;;;;;;;;;;;7.80;99.90;;;;;;5071676;28;19974;-74
2023/11/14 02:50:56;;;;;;;;;;;7.90;99.90;;;;;;5071793;28;19912;-74
2023/11/14 02:53:22;;;;;;;;;;;7.90;99.90;;;;;;5051703;28;20361;-75
2023/11/14 02:55:48;;;;;;;;;;;7.90;99.90;;;;;;5062731;28;19914;-75
2023/11/14 02:58:13;;;;;;;;;;;7.90;99.90;;;;;;5071835;28;19908;-75
2023/11/14 03:00:41;;;;;;;;;;;7.90;99.90;;;;;;5070367;28;19998;-74
2023/11/14 03:03:08;;;;;;;;;;;7.90;99.90;;;;;;5071814;28;20554;-74
2023/11/14 03:05:34;;;;;;;;;;;8.00;99.90;;;;;;5071738;28;19912;-74
2023/11/14 03:08:00;;;;;;;;;;;8.00;99.90;;;;;;5070308;28;19912;-74
2023/11/14 03:10:25;;;;;;;;;;;7.90;99.90;;;;;;5071459;28;19916;-74
2023/11/14 03:12:51;;;;;;;;;;;7.90;99.90;;;;;;5071591;28;19948;-75
2023/11/14 03:15:16;;;;;;;;;;;8.00;99.90;;;;;;5071723;28;20014;-75
2023/11/14 03:17:42;;;;;;;;;;;8.00;99.90;;;;;;5071239;28;19946;-74
2023/11/14 03:20:08;;;;;;;;;;;8.00;99.90;;;;;;5068470;28;19905;-75
2023/11/14 03:22:33;;;;;;;;;;;8.00;99.90;;;;;;5053216;28;19912;-74
2023/11/14 03:24:58;;;;;;;;;;;8.00;99.90;;;;;;5071362;28;20423;-75
2023/11/14 03:27:24;;;;;;;;;;;8.00;99.90;;;;;;5071242;28;19908;-74
2023/11/14 03:29:50;;;;;;;;;;;8.00;99.90;;;;;;5071147;28;19939;-74
2023/11/14 03:32:16;;;;;;;;;;;8.00;99.90;;;;;;5052814;28;19927;-74
2023/11/14 03:34:42;;;;;;;;;;;8.00;99.90;;;;;;5053299;28;20357;-75
2023/11/14 03:37:07;;;;;;;;;;;8.00;99.90;;;;;;5070716;28;20003;-75
2023/11/14 03:39:33;;;;;;;;;;;8.00;99.90;;;;;;5071162;28;19904;-75
2023/11/14 03:41:58;;;;;;;;;;;8.00;99.90;;;;;;5071132;28;19904;-75
2023/11/14 03:44:24;;;;;;;;;;;8.10;99.90;;;;;;5069971;28;20011;-75
2023/11/14 03:46:50;;;;;;;;;;;8.20;99.90;;;;;;5071019;28;19916;-74
2023/11/14 03:49:15;;;;;;;;;;;8.20;99.90;;;;;;5070847;28;20311;-74
2023/11/14 03:51:40;;;;;;;;;;;8.10;99.90;;;;;;5070964;28;20011;-74
2023/11/14 03:54:06;;;;;;;;;;;8.20;99.90;;;;;;5070510;28;20441;-74
2023/11/14 03:56:32;;;;;;;;;;;8.20;99.90;;;;;;5069743;28;19912;-75
2023/11/14 03:58:57;;;;;;;;;;;8.20;99.90;;;;;;5068979;28;19908;-74
2023/11/14 04:01:23;;;;;;;;;;;8.30;99.90;;;;;;5068581;28;20288;-74
2023/11/14 04:03:49;;;;;;;;;;;8.20;99.90;;;;;;5052549;28;19979;-74
2023/11/14 04:06:14;;;;;;;;;;;8.20;99.90;;;;;;5070436;28;19912;-74
2023/11/14 04:08:40;;;;;;;;;;;8.30;99.90;;;;;;5070623;28;20295;-74
2023/11/14 04:11:08;;;;;;;;;;;8.30;99.90;;;;;;5068955;28;19942;-74
2023/11/14 04:13:37;;;;;;;;;;;8.30;99.90;;;;;;5070642;28;19913;-75
2023/11/14 04:16:02;;;;;;;;;;;8.30;99.90;;;;;;5070242;28;19915;-75
2023/11/14 04:18:28;;;;;;;;;;;8.40;99.90;;;;;;5070549;28;20265;-74
2023/11/14 04:20:55;;;;;;;;;;;8.40;99.90;;;;;;5070513;28;19912;-75
2023/11/14 04:23:20;;;;;;;;;;;8.30;99.90;;;;;;5071549;28;20381;-75
2023/11/14 04:25:46;;;;;;;;;;;8.50;99.90;;;;;;5073233;28;19980;-75
2023/11/14 04:28:12;;;;;;;;;;;8.40;99.90;;;;;;5072451;28;19942;-75
2023/11/14 04:30:37;;;;;;;;;;;8.40;99.90;;;;;;5070059;28;19935;-75
2023/11/14 04:33:03;;;;;;;;;;;8.40;99.90;;;;;;5069121;28;19908;-74
2023/11/14 04:35:29;;;;;;;;;;;8.40;99.90;;;;;;5070125;28;19904;-74
2023/11/14 04:37:56;;;;;;;;;;;8.40;99.90;;;;;;5052129;28;19912;-74
2023/11/14 04:40:22;;;;;;;;;;;8.50;99.90;;;;;;5052101;28;19908;-75
2023/11/14 04:42:47;;;;;;;;;;;8.60;99.90;;;;;;5051373;28;19991;-75
2023/11/14 04:45:13;;;;;;;;;;;8.50;99.90;;;;;;5068250;28;20265;-75
2023/11/14 04:47:39;;;;;;;;;;;8.60;99.90;;;;;;5069814;28;19929;-75
2023/11/14 04:50:04;;;;;;;;;;;8.50;99.90;;;;;;5052200;28;19927;-75
2023/11/14 04:52:30;;;;;;;;;;;8.50;99.90;;;;;;5052085;28;20373;-74
2023/11/14 04:54:55;;;;;;;;;;;8.40;99.90;;;;;;5069881;28;19908;-74
2023/11/14 04:57:21;;;;;;;;;;;8.50;99.90;;;;;;5069828;28;20031;-75
2023/11/14 04:59:47;;;;;;;;;;;8.40;99.90;;;;;;5051798;28;19911;-74
2023/11/14 05:02:14;;;;;;;;;;;8.50;99.90;;;;;;5051749;28;19908;-75
2023/11/14 05:04:39;;;;;;;;;;;8.40;99.90;;;;;;5069731;28;19912;-75
2023/11/14 05:07:05;;;;;;;;;;;8.50;99.90;;;;;;5069977;28;19905;-75
2023/11/14 05:09:33;;;;;;;;;;;8.50;99.90;;;;;;5068247;28;19916;-74
2023/11/14 05:11:58;;;;;;;;;;;8.50;99.90;;;;;;5070007;28;19908;-75
2023/11/14 05:14:24;;;;;;;;;;;8.50;99.90;;;;;;5069518;28;19981;-74
2023/11/14 05:16:49;;;;;;;;;;;8.50;99.90;;;;;;5051456;28;19916;-74
2023/11/14 05:19:15;;;;;;;;;;;8.50;99.90;;;;;;5051775;28;19955;-74
2023/11/14 05:21:40;;;;;;;;;;;8.50;99.90;;;;;;5051637;28;19947;-74
2023/11/14 05:24:09;;;;;;;;;;;8.40;99.90;;;;;;5051645;28;19905;-75
2023/11/14 05:26:34;;;;;;;;;;;8.40;99.90;;;;;;5069878;28;20395;-74
2023/11/14 05:29:00;;;;;;;;;;;8.30;99.90;;;;;;5069471;28;19905;-75
2023/11/14 05:31:25;;;;;;;;;;;8.40;99.90;;;;;;5069646;28;19916;-74
2023/11/14 05:33:51;;;;;;;;;;;8.40;99.90;;;;;;5069640;28;19904;-75
2023/11/14 05:36:16;;;;;;;;;;;8.40;99.90;;;;;;5069383;28;20380;-74
2023/11/14 05:38:42;;;;;;;;;;;8.40;99.90;;;;;;5068024;28;20361;-74
2023/11/14 05:41:07;;;;;;;;;;;8.40;99.90;;;;;;5069352;28;20288;-74
2023/11/14 05:43:33;;;;;;;;;;;8.30;99.90;;;;;;5069733;28;19912;-75
2023/11/14 05:46:00;;;;;;;;;;;8.40;99.90;;;;;;5069516;28;19908;-75
2023/11/14 05:48:26;;;;;;;;;;;8.40;99.90;;;;;;5064788;28;19926;-74
2023/11/14 05:50:51;;;;;;;;;;;8.40;99.90;;;;;;5049491;28;19917;-75
2023/11/14 05:53:17;;;;;;;;;;;8.30;99.90;;;;;;5049208;28;20036;-74
2023/11/14 05:55:42;;;;;;;;;;;8.30;99.90;;;;;;5033767;28;19944;-75
2023/11/14 05:58:08;;;;;;;;;;;8.30;99.90;;;;;;5035482;28;20379;-74
2023/11/14 06:00:33;;;;;;;;;;;8.30;99.90;;;;;;5052927;28;20420;-74
2023/11/14 06:02:59;;;;;;;;;;;8.30;99.90;;;;;;5052924;28;19909;-74
2023/11/14 06:05:24;;;;;;;;;;;8.30;99.90;;;;;;5053170;28;19995;-75
2023/11/14 06:07:50;;;;;;;;;;;8.30;99.90;;;;;;5035376;28;19999;-75
2023/11/14 06:10:15;;;;;;;;;;;8.30;99.90;;;;;;5052695;28;19967;-74
2023/11/14 06:12:41;;;;;;;;;;;8.30;99.90;;;;;;5034886;28;19931;-75
2023/11/14 06:15:07;;;;;;;;;;;8.30;99.90;;;;;;5035163;28;19909;-75
2023/11/14 06:17:33;;;;;;;;;;;8.40;99.90;;;;;;5053087;28;19909;-75
2023/11/14 06:19:58;;;;;;;;;;;8.40;99.90;;;;;;5053177;28;19951;-75
2023/11/14 06:22:24;;;;;;;;;;;8.40;99.90;;;;;;5053109;28;20384;-74
2023/11/14 06:24:49;;;;;;;;;;;8.40;99.90;;;;;;5035002;28;19956;-74
2023/11/14 06:27:15;;;;;;;;;;;8.40;99.90;;;;;;5035082;28;19913;-74
2023/11/14 06:29:41;;;;;;;;;;;8.40;99.90;;;;;;5053033;28;20536;-75
2023/11/14 06:32:07;;;;;;;;;;;8.40;99.90;;;;;;5036523;28;20364;-75
2023/11/14 06:34:32;;;;;;;;;;;8.50;99.90;;;;;;5036564;28;19999;-74
2023/11/14 06:36:58;;;;;;;;;;;8.50;99.90;;;;;;5034292;28;20384;-73
2023/11/14 06:39:24;;;;;;;;;;;8.50;99.90;;;;;;5034678;28;19909;-75
2023/11/14 06:41:50;;;;;;;;;;;8.60;99.90;;;;;;5052268;28;19908;-74
2023/11/14 06:44:17;;;;;;;;;;;8.70;99.90;;;;;;5052347;28;19908;-74
2023/11/14 06:46:42;;;;;;;;;;;8.70;99.90;;;;;;5053856;28;19909;-74
2023/11/14 06:49:08;;;;;;;;;;;8.70;99.90;;;;;;5072226;28;20211;-75
2023/11/14 06:51:33;;;;;;;;;;;8.70;99.90;;;;;;5072058;28;19923;-74
2023/11/14 06:53:59;;;;;;;;;;;8.90;99.90;;;;;;5071970;28;20258;-75
2023/11/14 06:56:25;;;;;;;;;;;8.90;99.90;;;;;;5071814;28;19916;-75
2023/11/14 06:58:50;;;;;;;;;;;8.90;99.90;;;;;;5071879;28;19911;-75
2023/11/14 07:01:16;;;;;;;;;;;8.90;99.90;;;;;;5071555;28;20319;-73
2023/11/14 07:03:43;;;;;;;;;;;8.90;99.90;;;;;;5071825;28;19995;-74
2023/11/14 07:06:09;;;;;;;;;;;9.00;99.90;;;;;;5071061;28;19904;-75
2023/11/14 07:08:35;;;;;;;;;;;9.10;99.90;;;;;;5071399;28;20502;-74
2023/11/14 07:11:00;;;;;;;;;;;9.30;99.90;;;;;;5053726;28;19923;-75
2023/11/14 07:13:26;;;;;;;;;;;9.20;99.90;;;;;;5053771;28;19915;-75
2023/11/14 07:15:51;;;;;;;;;;;9.30;99.90;;;;;;5071680;28;19916;-75
2023/11/14 07:18:17;;;;;;;;;;;9.30;99.90;;;;;;5053344;28;19915;-75
2023/11/14 07:20:42;;;;;;;;;;;9.30;99.90;;;;;;5071283;28;19912;-75
2023/11/14 07:23:08;;;;;;;;;;;9.30;99.90;;;;;;5071319;28;20291;-75
2023/11/14 07:25:35;;;;;;;;;;;9.30;99.90;;;;;;5071561;28;20404;-75
2023/11/14 07:28:02;;;;;;;;;;;9.40;99.90;;;;;;5071437;28;20007;-74
2023/11/14 07:30:30;;;;;;;;;;;9.40;99.90;;;;;;5071141;28;20388;-74
2023/11/14 07:32:56;;;;;;;;;;;9.50;99.90;;;;;;5071218;28;19908;-75
2023/11/14 07:35:21;;;;;;;;;;;9.70;99.90;;;;;;5071020;28;20324;-74
2023/11/14 07:37:47;;;;;;;;;;;9.80;99.90;;;;;;5052990;28;19904;-74
2023/11/14 07:40:13;;;;;;;;;;;9.90;99.90;;;;;;5071272;28;19908;-75
2023/11/14 07:42:38;;;;;;;;;;;10.00;99.90;;;;;;5052852;28;20291;-75
2023/11/14 07:45:06;;;;;;;;;;;10.10;99.90;;;;;;5071184;28;19920;-75
2023/11/14 07:47:32;;;;;;;;;;;10.20;99.90;;;;;;5052981;28;20368;-74
2023/11/14 07:49:58;;;;;;;;;;;10.30;99.90;;;;;;5070959;28;19966;-74
2023/11/14 07:52:23;;;;;;;;;;;10.30;99.90;;;;;;5071010;28;19911;-75
2023/11/14 07:54:52;;;;;;;;;;;10.30;99.90;;;;;;5070653;28;19971;-74
2023/11/14 07:57:18;;;;;;;;;;;10.40;99.90;;;;;;5070890;28;20027;-74
2023/11/14 07:59:44;;;;;;;;;;;10.60;99.90;;;;;;5070971;28;20026;-75
2023/11/14 08:02:10;;;;;;;;;;;10.70;99.90;;;;;;5070624;28;19908;-74
2023/11/14 08:04:35;;;;;;;;;;;10.70;99.90;;;;;;5070274;28;20365;-74
2023/11/14 08:07:01;;;;;;;;;;;10.80;99.90;;;;;;5069081;28;19912;-73
2023/11/14 08:09:28;;;;;;;;;;;11.00;99.90;;;;;;5070603;28;20372;-74
2023/11/14 08:11:54;;;;;;;;;;;11.00;99.90;;;;;;5052769;28;19995;-74
2023/11/14 08:14:20;;;;;;;;;;;11.10;99.90;;;;;;5052874;28;19914;-74
2023/11/14 08:16:46;;;;;;;;;;;11.20;99.90;;;;;;5069283;28;19904;-74
2023/11/14 08:19:11;;;;;;;;;;;11.50;99.90;;;;;;5070595;28;20388;-74
2023/11/14 08:21:37;;;;;;;;;;;11.60;99.90;;;;;;5052652;28;19958;-74
2023/11/14 08:24:02;;;;;;;;;;;11.70;99.90;;;;;;5052830;28;19904;-74
2023/11/14 08:26:28;;;;;;;;;;;11.80;99.90;;;;;;5052660;28;19904;-74
2023/11/14 08:28:54;;;;;;;;;;;11.90;99.90;;;;;;5070944;28;19910;-74
2023/11/14 08:31:19;;;;;;;;;;;11.90;99.90;;;;;;5069575;28;19916;-74
2023/11/14 08:33:45;;;;;;;;;;;11.90;99.90;;;;;;5053267;28;19987;-74
2023/11/14 08:36:10;;;;;;;;;;;11.90;99.90;;;;;;5071839;28;19913;-75
2023/11/14 08:38:37;;;;;;;;;;;12.00;99.90;;;;;;5072322;28;20003;-74
2023/11/14 08:41:02;;;;;;;;;;;12.00;99.90;;;;;;5070870;28;20410;-74
2023/11/14 08:43:28;;;;;;;;;;;11.90;99.90;;;;;;5052696;28;19991;-75
2023/11/14 08:45:54;;;;;;;;;;;11.80;99.90;;;;;;5068630;28;19958;-74
2023/11/14 08:48:21;;;;;;;;;;;11.70;99.90;;;;;;5065344;28;19923;-74
2023/11/14 08:50:46;;;;;;;;;;;11.60;99.90;;;;;;5049819;28;20380;-74
2023/11/14 08:53:12;;;;;;;;;;;11.60;99.90;;;;;;5050128;28;19931;-74
2023/11/14 08:55:39;;;;;;;;;;;11.60;99.90;;;;;;5032534;28;19925;-74
2023/11/14 08:58:06;;;;;;;;;;;11.50;99.90;;;;;;5050136;28;19908;-74
2023/11/14 09:00:31;;;;;;;;;;;11.40;99.90;;;;;;5049903;28;19911;-75
2023/11/14 09:02:58;;;;;;;;;;;11.40;99.90;;;;;;5049991;28;19909;-75
2023/11/14 09:05:24;;;;;;;;;;;11.40;99.90;;;;;;5050016;28;19962;-74
2023/11/14 09:07:50;;;;;;;;;;;11.40;99.90;;;;;;5032191;28;19927;-74
2023/11/14 09:10:16;;;;;;;;;;;11.50;99.90;;;;;;5049961;28;20376;-74
2023/11/14 09:12:41;;;;;;;;;;;11.60;99.90;;;;;;5031839;28;20346;-74
2023/11/14 09:15:09;;;;;;;;;;;11.60;99.90;;;;;;5050046;28;19905;-75
2023/11/14 09:17:34;;;;;;;;;;;11.70;99.90;;;;;;5049971;28;19905;-74
2023/11/14 09:20:00;;;;;;;;;;;11.80;99.90;;;;;;5050118;28;20376;-75
2023/11/14 09:22:28;;;;;;;;;;;11.80;99.90;;;;;;5031854;28;19995;-74
2023/11/14 09:24:54;;;;;;;;;;;12.00;99.90;;;;;;5050019;28;19953;-74
2023/11/14 09:27:22;;;;;;;;;;;12.20;99.90;;;;;;5050098;28;20280;-74
2023/11/14 09:29:48;;;;;;;;;;;12.30;99.90;;;;;;5032825;28;19913;-74
2023/11/14 09:32:13;;;;;;;;;;;12.40;99.90;;;;;;5053822;28;19909;-74
2023/11/14 09:34:39;;;;;;;;;;;12.50;99.90;;;;;;5035660;28;20304;-74
2023/11/14 09:37:05;;;;;;;;;;;12.40;99.90;;;;;;5053700;28;20360;-75
2023/11/14 09:39:31;;;;;;;;;;;12.40;99.90;;;;;;5035889;28;19915;-74
2023/11/14 09:41:57;;;;;;;;;;;12.40;99.90;;;;;;5035925;28;19908;-75
2023/11/14 09:44:23;;;;;;;;;;;12.30;99.90;;;;;;5035484;28;20266;-74
2023/11/14 09:46:50;;;;;;;;;;;12.20;99.90;;;;;;5056263;28;19962;-75
2023/11/14 09:49:16;;;;;;;;;;;12.10;99.90;;;;;;5073559;28;19951;-74
2023/11/14 09:51:44;;;;;;;;;;;12.00;99.90;;;;;;5073555;28;19974;-75
2023/11/14 09:54:11;;;;;;;;;;;12.00;99.90;;;;;;5073988;28;19915;-74
2023/11/14 09:56:38;;;;;;;;;;;11.90;99.90;;;;;;5072434;28;19905;-74
2023/11/14 09:59:04;;;;;;;;;;;11.90;99.90;;;;;;5055565;28;19948;-75
2023/11/14 10:01:30;;;;;;;;;;;11.90;99.90;;;;;;5073917;28;19958;-74
2023/11/14 10:03:55;;;;;;;;;;;11.90;99.90;;;;;;5073747;28;19931;-74
2023/11/14 10:06:21;;;;;;;;;;;11.90;99.90;;;;;;5074095;28;19904;-75
2023/11/14 10:08:47;;;;;;;;;;;11.90;99.90;;;;;;5073903;28;19947;-75
2023/11/14 10:11:12;;;;;;;;;;;11.90;99.90;;;;;;5055813;28;19912;-75
2023/11/14 10:13:39;;;;;;;;;;;11.90;99.90;;;;;;5073421;28;19911;-74
2023/11/14 10:16:11;;;;;;;;;;;11.90;99.90;;;;;;5074078;28;19913;-75
2023/11/14 10:18:36;;;;;;;;;;;11.90;99.90;;;;;;5074086;28;19970;-75
2023/11/14 10:21:02;;;;;;;;;;;11.90;99.90;;;;;;5072752;28;20380;-74
2023/11/14 10:23:33;;;;;;;;;;;12.00;99.90;;;;;;5073557;28;19908;-75
2023/11/14 10:26:06;;;;;;;;;;;12.00;99.90;;;;;;5073964;28;19931;-75
2023/11/14 10:28:32;;;;;;;;;;;12.00;99.90;;;;;;5073788;28;19912;-75
2023/11/14 10:30:59;;;;;;;;;;;12.00;99.90;;;;;;5073837;28;19917;-74
2023/11/14 10:33:30;;;;;;;;;;;12.00;99.90;;;;;;5055929;28;20372;-75
2023/11/14 10:35:59;;;;;;;;;;;12.10;99.90;;;;;;5074295;28;19914;-74
2023/11/14 10:38:25;;;;;;;;;;;12.10;99.90;;;;;;5074009;28;19912;-75
2023/11/14 10:40:51;;;;;;;;;;;12.00;99.90;;;;;;5055888;28;19911;-74
2023/11/14 10:43:27;;;;;;;;;;;12.00;99.90;;;;;;5057433;28;19954;-75
2023/11/14 10:45:53;;;;;;;;;;;12.10;99.90;;;;;;5056677;28;19905;-74
2023/11/14 10:48:22;;;;;;;;;;;12.10;99.90;;;;;;5072480;28;20392;-74
2023/11/14 10:50:48;;;;;;;;;;;12.10;99.90;;;;;;5054687;28;19924;-75
2023/11/14 10:53:14;;;;;;;;;;;12.20;99.90;;;;;;5072567;28;19908;-75
2023/11/14 10:55:40;;;;;;;;;;;12.30;99.90;;;;;;5072372;28;19999;-75
2023/11/14 10:58:07;;;;;;;;;;;12.40;99.90;;;;;;5072665;28;19955;-75
2023/11/14 11:00:34;;;;;;;;;;;12.40;99.90;;;;;;5072389;28;19915;-75
2023/11/14 11:03:00;;;;;;;;;;;12.50;99.90;;;;;;5054401;28;19912;-75
2023/11/14 11:05:31;;;;;;;;;;;12.50;99.90;;;;;;5072539;28;19987;-75
2023/11/14 11:07:58;;;;;;;;;;;12.60;99.90;;;;;;5072297;28;19936;-75
2023/11/14 11:10:24;;;;;;;;;;;12.60;99.90;;;;;;5072489;28;20388;-75
2023/11/14 11:12:51;;;;;;;;;;;12.60;99.90;;;;;;5054755;28;19904;-75
2023/11/14 11:15:16;;;;;;;;;;;12.70;99.90;;;;;;5054609;28;19975;-75
2023/11/14 11:17:43;;;;;;;;;;;12.70;99.90;;;;;;5070807;28;19947;-75
2023/11/14 11:20:25;;;;;;;;;;;12.80;99.90;;;;;;5071909;28;20383;-75
2023/11/14 11:23:10;;;;;;;;;;;12.90;99.90;;;;;;5072323;28;20277;-74
2023/11/14 11:25:41;;;;;;;;;;;13.00;99.90;;;;;;5072049;28;19959;-75
2023/11/14 11:28:19;;;;;;;;;;;13.10;99.90;;;;;;5072440;28;20384;-75
2023/11/14 11:31:04;;;;;;;;;;;13.10;99.90;;;;;;5053984;28;20369;-75
2023/11/14 11:33:36;;;;;;;;;;;13.20;99.90;;;;;;5072260;28;20347;-75
2023/11/14 11:36:20;;;;;;;;;;;13.20;99.90;;;;;;5054648;28;19927;-75
2023/11/14 11:38:53;;;;;;;;;;;13.20;99.90;;;;;;5072970;28;19911;-76
2023/11/14 11:41:19;;;;;;;;;;;13.30;99.90;;;;;;5072431;28;19908;-75
2023/11/14 11:43:44;;;;;;;;;;;13.30;99.90;;;;;;5045429;28;20547;-75
2023/11/14 11:46:29;;;;;;;;;;;13.30;99.90;;;;;;5071885;28;19987;-75
2023/11/14 11:48:55;;;;;;;;;;;13.40;99.90;;;;;;5072081;28;19924;-75
2023/11/14 11:51:21;;;;;;;;;;;13.40;99.90;;;;;;5072022;28;19993;-74
2023/11/14 11:53:49;;;;;;;;;;;13.50;99.90;;;;;;5069591;28;19908;-75
2023/11/14 11:56:33;;;;;;;;;;;13.50;99.90;;;;;;5072424;28;19909;-75
2023/11/14 11:58:59;;;;;;;;;;;13.50;99.90;;;;;;5053798;28;19951;-74
2023/11/14 12:01:24;;;;;;;;;;;13.50;99.90;;;;;;5071748;28;19947;-75
2023/11/14 12:03:50;;;;;;;;;;;13.60;99.90;;;;;;5071792;28;20284;-75
2023/11/14 12:06:15;;;;;;;;;;;13.60;99.90;;;;;;5071505;28;19908;-75
2023/11/14 12:08:41;;;;;;;;;;;13.60;99.90;;;;;;5053218;28;19966;-74
2023/11/14 12:11:14;;;;;;;;;;;13.70;99.90;;;;;;5071447;28;19919;-75
2023/11/14 12:13:45;;;;;;;;;;;13.60;99.90;;;;;;5070206;28;19916;-75
2023/11/14 12:16:11;;;;;;;;;;;13.50;99.90;;;;;;5069700;28;20002;-74
2023/11/14 12:18:37;;;;;;;;;;;13.50;99.90;;;;;;5071845;28;20011;-75
2023/11/14 12:21:03;;;;;;;;;;;13.50;99.90;;;;;;5071648;28;19950;-75
2023/11/14 12:23:29;;;;;;;;;;;13.40;99.90;;;;;;5054021;28;19905;-75
2023/11/14 12:25:54;;;;;;;;;;;13.40;99.90;;;;;;5070736;28;19912;-75
2023/11/14 12:28:20;;;;;;;;;;;13.30;99.90;;;;;;5071491;28;19904;-75
2023/11/14 12:31:01;;;;;;;;;;;13.30;99.90;;;;;;5071523;28;19970;-75
2023/11/14 12:33:26;;;;;;;;;;;13.30;99.90;;;;;;5049798;28;20356;-75
2023/11/14 12:35:59;;;;;;;;;;;13.30;99.90;;;;;;5053258;28;20011;-75
2023/11/14 12:38:42;;;;;;;;;;;13.20;99.90;;;;;;5071625;28;19938;-74
2023/11/14 12:41:28;;;;;;;;;;;13.10;99.90;;;;;;5066764;28;19962;-73
2023/11/14 12:43:57;;;;;;;;;;;13.00;99.90;;;;;;5054337;28;20262;-75
2023/11/14 12:46:26;;;;;;;;;;;13.00;99.90;;;;;;5054128;28;20425;-74
2023/11/14 12:49:10;;;;;;;;;;;13.00;99.90;;;;;;5073476;28;19948;-76
2023/11/14 12:51:40;;;;;;;;;;;13.00;99.90;;;;;;5073175;28;19935;-75
2023/11/14 12:54:06;;;;;;;;;;;13.00;99.90;;;;;;5052719;28;19931;-74
2023/11/14 12:56:31;;;;;;;;;;;13.00;99.90;;;;;;5052663;28;19905;-75
2023/11/14 12:58:57;;;;;;;;;;;13.00;99.90;;;;;;5070644;28;19909;-75
2023/11/14 13:01:23;;;;;;;;;;;12.90;99.90;;;;;;5070378;28;19915;-75
2023/11/14 13:03:48;;;;;;;;;;;12.90;99.90;;;;;;5052598;28;19904;-75
2023/11/14 13:06:16;;;;;;;;;;;12.90;99.90;;;;;;5073970;28;19923;-75
2023/11/14 13:08:42;;;;;;;;;;;12.80;99.90;;;;;;5075043;28;19904;-74
2023/11/14 13:11:08;;;;;;;;;;;12.80;99.90;;;;;;5074770;28;20007;-75
2023/11/14 13:13:34;;;;;;;;;;;12.80;99.90;;;;;;5074550;28;19982;-75
2023/11/14 13:15:59;;;;;;;;;;;12.70;99.90;;;;;;5074800;28;19959;-75
2023/11/14 13:18:25;;;;;;;;;;;12.70;99.90;;;;;;5075045;28;19913;-75
2023/11/14 13:20:50;;;;;;;;;;;12.60;99.90;;;;;;5074687;28;20364;-75
2023/11/14 13:23:16;;;;;;;;;;;12.60;99.90;;;;;;5074925;28;19905;-74
2023/11/14 13:25:41;;;;;;;;;;;12.60;99.90;;;;;;5074809;28;19909;-75
2023/11/14 13:28:07;;;;;;;;;;;12.60;99.90;;;;;;5074614;28;19916;-74
2023/11/14 13:30:33;;;;;;;;;;;12.60;99.90;;;;;;5074335;28;19908;-75
2023/11/14 13:32:58;;;;;;;;;;;12.60;99.90;;;;;;5073496;28;20380;-75
2023/11/14 13:35:24;;;;;;;;;;;12.70;99.90;;;;;;5056251;28;19993;-74
2023/11/14 13:37:49;;;;;;;;;;;12.60;99.90;;;;;;5074433;28;19912;-75
2023/11/14 13:40:18;;;;;;;;;;;12.70;99.90;;;;;;5074250;28;19905;-77
2023/11/14 13:42:44;;;;;;;;;;;12.70;99.90;;;;;;5074501;28;19912;-74
2023/11/14 13:45:09;;;;;;;;;;;12.60;99.90;;;;;;5056646;28;19905;-74
2023/11/14 13:47:36;;;;;;;;;;;12.70;99.90;;;;;;5074427;28;19923;-75
2023/11/14 13:50:05;;;;;;;;;;;12.70;99.90;;;;;;5056518;28;20373;-75
2023/11/14 13:52:33;;;;;;;;;;;12.70;99.90;;;;;;5072942;28;20330;-75
2023/11/14 13:54:59;;;;;;;;;;;12.60;99.90;;;;;;5074578;28;19912;-74
2023/11/14 13:57:24;;;;;;;;;;;12.60;99.90;;;;;;5056242;28;19924;-75
2023/11/14 13:59:50;;;;;;;;;;;12.60;99.90;;;;;;5074685;28;19912;-75
2023/11/14 14:02:21;;;;;;;;;;;12.60;99.90;;;;;;5074396;28;20455;-75
2023/11/14 14:04:50;;;;;;;;;;;12.50;99.90;;;;;;5056084;28;19911;-75
2023/11/14 14:07:16;;;;;;;;;;;12.50;99.90;;;;;;5074090;28;19951;-74
2023/11/14 14:09:41;;;;;;;;;;;12.50;99.90;;;;;;5074004;28;19908;-75
2023/11/14 14:12:09;;;;;;;;;;;12.50;99.90;;;;;;5074124;28;19908;-75
2023/11/14 14:14:37;;;;;;;;;;;12.50;99.90;;;;;;5056343;28;19915;-75
2023/11/14 14:17:04;;;;;;;;;;;12.50;99.90;;;;;;5073794;28;19904;-75
2023/11/14 14:19:30;;;;;;;;;;;12.50;99.90;;;;;;5074124;28;20396;-75